Time;durP1;ratioP1;P1;durP2;ratioP2;P2;SDS_P1;SDS_P2;PMS_P1;PMS_P2;Temp;Humidity;BMP_temperature;BMP_pressure;BME280_temperature;BME280_humidity;BME280_pressure;Samples;Min_cycle;Max_cycle;Signal;HPM_P1;HPM_P2
2021/06/14 00:00:22;;;;;;;12.00;6.22;;;;;;;;;;1497602;39;20046;-58
2021/06/14 00:01:24;;;;;;;10.07;6.15;;;;;;;;;;1497345;39;20035;-58
2021/06/14 00:02:26;;;;;;;8.13;6.40;;;;;;;;;;1497245;39;20031;-58
2021/06/14 00:03:27;;;;;;;11.90;6.40;;;;;;;;;;1497489;39;20023;-57
2021/06/14 00:04:31;;;;;;;10.63;6.43;;;;;;;;;;1497502;39;20035;-58
2021/06/14 00:05:36;;;;;;;8.48;6.80;;;;;;;;;;1497351;39;20031;-57
2021/06/14 00:06:38;;;;;;;10.25;6.03;;;;;;;;;;1497195;39;20039;-57
2021/06/14 00:07:39;;;;;;;8.13;6.38;;;;;;;;;;1497274;39;20038;-58
2021/06/14 00:08:42;;;;;;;11.57;6.43;;;;;;;;;;1497261;39;20035;-57
2021/06/14 00:09:43;;;;;;;9.45;5.95;;;;;;;;;;1497118;39;20023;-57
2021/06/14 00:10:48;;;;;;;10.50;6.13;;;;;;;;;;1497383;39;20031;-58
2021/06/14 00:11:49;;;;;;;7.47;5.40;;;;;;;;;;1497324;39;20034;-58
2021/06/14 00:12:51;;;;;;;11.45;5.60;;;;;;;;;;1497127;39;20401;-57
2021/06/14 00:13:51;;;;;;;7.70;5.55;;;;;;;;;;1497138;39;20054;-57
2021/06/14 00:14:54;;;;;;;9.73;5.82;;;;;;;;;;1497314;39;20032;-57
2021/06/14 00:15:55;;;;;;;10.93;5.72;;;;;;;;;;1497260;39;20027;-58
2021/06/14 00:16:58;;;;;;;8.45;5.70;;;;;;;;;;1497408;39;20067;-58
2021/06/14 00:18:00;;;;;;;13.32;5.93;;;;;;;;;;1497214;39;20027;-58
2021/06/14 00:19:02;;;;;;;11.20;5.80;;;;;;;;;;1497394;39;20032;-58
2021/06/14 00:20:06;;;;;;;11.60;6.35;;;;;;;;;;1497145;39;20405;-58
2021/06/14 00:21:11;;;;;;;10.88;5.90;;;;;;;;;;1497190;39;20387;-57
2021/06/14 00:22:13;;;;;;;10.77;6.30;;;;;;;;;;1497339;39;20031;-57
2021/06/14 00:23:14;;;;;;;11.30;5.95;;;;;;;;;;1497666;39;20031;-60
2021/06/14 00:24:15;;;;;;;8.63;5.70;;;;;;;;;;1497048;39;20391;-60
2021/06/14 00:25:21;;;;;;;10.65;6.30;;;;;;;;;;1497150;39;20031;-60
2021/06/14 00:26:22;;;;;;;9.15;5.47;;;;;;;;;;1497444;39;20148;-60
2021/06/14 00:27:36;;;;;;;8.60;5.38;;;;;;;;;;1497242;39;20307;-60
2021/06/14 00:28:37;;;;;;;12.05;5.40;;;;;;;;;;1492472;39;20039;-60
2021/06/14 00:29:39;;;;;;;10.48;5.80;;;;;;;;;;1492697;39;20028;-59
2021/06/14 00:30:43;;;;;;;8.18;5.60;;;;;;;;;;1497269;39;20036;-59
2021/06/14 00:31:45;;;;;;;9.63;6.28;;;;;;;;;;1497169;39;20028;-60
2021/06/14 00:32:48;;;;;;;10.10;6.10;;;;;;;;;;1497042;39;20038;-60
2021/06/14 00:33:49;;;;;;;10.43;5.95;;;;;;;;;;1497321;39;20028;-60
2021/06/14 00:34:50;;;;;;;7.32;5.38;;;;;;;;;;1497274;39;20023;-60
2021/06/14 00:35:52;;;;;;;8.30;5.63;;;;;;;;;;1497130;39;20319;-59
2021/06/14 00:36:54;;;;;;;10.10;5.40;;;;;;;;;;1497284;39;20023;-59
2021/06/14 00:37:56;;;;;;;9.05;5.50;;;;;;;;;;1497224;39;20112;-60
2021/06/14 00:38:56;;;;;;;8.45;5.85;;;;;;;;;;1497299;39;20031;-60
2021/06/14 00:39:58;;;;;;;10.13;5.70;;;;;;;;;;1497013;39;20049;-60
2021/06/14 00:40:59;;;;;;;8.73;5.43;;;;;;;;;;1497275;39;20024;-60
2021/06/14 00:42:01;;;;;;;10.57;5.97;;;;;;;;;;1497345;39;20379;-60
2021/06/14 00:43:03;;;;;;;7.60;5.55;;;;;;;;;;1497351;39;20028;-59
2021/06/14 00:44:05;;;;;;;8.13;5.38;;;;;;;;;;1497173;39;20030;-60
2021/06/14 00:45:09;;;;;;;9.85;5.70;;;;;;;;;;1497064;39;20403;-59
2021/06/14 00:46:11;;;;;;;9.38;5.95;;;;;;;;;;1497240;39;20038;-60
2021/06/14 00:47:12;;;;;;;9.88;5.80;;;;;;;;;;1497246;39;20068;-59
2021/06/14 00:48:16;;;;;;;8.32;6.07;;;;;;;;;;1497104;39;20376;-59
2021/06/14 00:49:17;;;;;;;7.32;5.57;;;;;;;;;;1497015;39;20043;-60
2021/06/14 00:50:32;;;;;;;7.38;5.72;;;;;;;;;;1497282;39;20031;-60
2021/06/14 00:51:33;;;;;;;9.82;5.38;;;;;;;;;;1497224;39;20024;-60
2021/06/14 00:52:35;;;;;;;9.07;5.50;;;;;;;;;;1497345;39;20032;-60
2021/06/14 00:53:37;;;;;;;9.50;5.40;;;;;;;;;;1497285;39;20023;-60
2021/06/14 00:54:39;;;;;;;7.18;5.22;;;;;;;;;;1497022;39;20027;-59
2021/06/14 00:55:41;;;;;;;8.40;5.40;;;;;;;;;;1497190;39;20028;-60
2021/06/14 00:56:42;;;;;;;11.27;5.70;;;;;;;;;;1497055;39;20036;-60
2021/06/14 00:57:44;;;;;;;9.57;5.30;;;;;;;;;;1497000;39;20031;-59
2021/06/14 00:58:45;;;;;;;9.20;5.57;;;;;;;;;;1497150;39;20135;-60
2021/06/14 00:59:46;;;;;;;9.77;5.78;;;;;;;;;;1497058;39;20387;-60
2021/06/14 01:00:48;;;;;;;9.88;5.45;;;;;;;;;;1496996;39;20030;-60
2021/06/14 01:01:49;;;;;;;9.23;5.68;;;;;;;;;;1496997;39;20031;-60
2021/06/14 01:02:51;;;;;;;7.32;5.18;;;;;;;;;;1497201;39;20103;-60
2021/06/14 01:03:53;;;;;;;8.52;5.85;;;;;;;;;;1497013;39;20387;-60
2021/06/14 01:04:55;;;;;;;8.07;4.88;;;;;;;;;;1497066;39;20414;-60
2021/06/14 01:05:58;;;;;;;10.23;5.65;;;;;;;;;;1497324;39;20034;-60
2021/06/14 01:07:00;;;;;;;11.15;6.20;;;;;;;;;;1497145;39;20039;-60
2021/06/14 01:08:01;;;;;;;7.35;5.40;;;;;;;;;;1497134;39;20394;-60
2021/06/14 01:09:03;;;;;;;12.02;6.15;;;;;;;;;;1497117;39;20042;-60
2021/06/14 01:10:06;;;;;;;12.02;6.25;;;;;;;;;;1496972;39;20383;-60
2021/06/14 01:11:22;;;;;;;10.27;5.13;;;;;;;;;;1497390;39;20034;-59
2021/06/14 01:12:28;;;;;;;9.35;5.75;;;;;;;;;;1496970;39;20256;-59
2021/06/14 01:13:38;;;;;;;10.60;5.22;;;;;;;;;;1497223;39;20024;-59
2021/06/14 01:14:50;;;;;;;9.57;5.38;;;;;;;;;;1496980;39;20075;-60
2021/06/14 01:16:01;;;;;;;11.85;5.10;;;;;;;;;;1497332;39;20112;-59
2021/06/14 01:17:04;;;;;;;;;;;;;;;;;;1497680;39;20031;-60
2021/06/14 01:18:10;;;;;;;7.90;5.03;;;;;;;;;;1496612;39;20197;-60
2021/06/14 01:19:31;;;;;;;9.13;5.10;;;;;;;;;;1496915;39;20405;-60
2021/06/14 01:20:49;;;;;;;9.10;4.95;;;;;;;;;;1497021;39;20038;-60
2021/06/14 01:22:15;;;;;;;7.80;5.35;;;;;;;;;;1497071;39;20039;-60
2021/06/14 01:23:58;;;;;;;8.02;4.93;;;;;;;;;;1497111;39;20023;-59
2021/06/14 01:25:07;;;;;;;8.63;5.15;;;;;;;;;;1497227;39;20100;-59
2021/06/14 01:26:12;;;;;;;7.50;5.18;;;;;;;;;;1497128;39;20036;-59
2021/06/14 01:27:36;;;;;;;9.10;5.50;;;;;;;;;;1497471;39;20100;-59
2021/06/14 01:28:38;;;;;;;9.73;5.03;;;;;;;;;;1497147;39;20034;-59
2021/06/14 01:29:41;;;;;;;7.50;5.18;;;;;;;;;;1497015;39;20383;-59
2021/06/14 01:30:43;;;;;;;9.50;5.45;;;;;;;;;;1497187;39;20031;-60
2021/06/14 01:31:45;;;;;;;9.40;6.05;;;;;;;;;;1496994;39;20108;-59
2021/06/14 01:32:49;;;;;;;9.98;5.53;;;;;;;;;;1497126;39;20034;-60
2021/06/14 01:33:51;;;;;;;9.02;5.95;;;;;;;;;;1497089;39;20035;-60
2021/06/14 01:34:52;;;;;;;10.27;5.70;;;;;;;;;;1497106;39;20027;-60
2021/06/14 01:35:57;;;;;;;8.43;5.70;;;;;;;;;;1496879;39;20034;-60
2021/06/14 01:37:00;;;;;;;8.23;5.47;;;;;;;;;;1496927;39;20032;-59
2021/06/14 01:38:03;;;;;;;8.77;5.57;;;;;;;;;;1497090;39;20031;-60
2021/06/14 01:39:06;;;;;;;7.60;5.30;;;;;;;;;;1497082;39;20035;-59
2021/06/14 01:40:10;;;;;;;9.80;5.75;;;;;;;;;;1497352;39;20031;-59
2021/06/14 01:41:13;;;;;;;9.63;5.38;;;;;;;;;;1496932;39;20031;-59
2021/06/14 01:42:16;;;;;;;12.30;6.07;;;;;;;;;;1497019;39;20327;-60
2021/06/14 01:43:22;;;;;;;9.32;5.60;;;;;;;;;;1497183;39;20028;-59
2021/06/14 01:44:25;;;;;;;8.57;5.55;;;;;;;;;;1497138;39;20038;-59
2021/06/14 01:45:29;;;;;;;8.75;5.05;;;;;;;;;;1497189;39;20148;-59
2021/06/14 01:46:35;;;;;;;9.05;5.15;;;;;;;;;;1497173;39;20054;-59
2021/06/14 01:47:36;;;;;;;9.73;5.68;;;;;;;;;;1496906;39;20019;-59
2021/06/14 01:48:41;;;;;;;7.35;5.53;;;;;;;;;;1496940;39;20027;-59
2021/06/14 01:49:43;;;;;;;10.32;5.40;;;;;;;;;;1497192;39;20023;-59
2021/06/14 01:50:46;;;;;;;9.70;5.57;;;;;;;;;;1497049;39;20131;-59
2021/06/14 01:51:47;;;;;;;8.63;5.60;;;;;;;;;;1497135;39;20039;-59
2021/06/14 01:52:50;;;;;;;10.45;5.80;;;;;;;;;;1496939;39;20111;-59
2021/06/14 01:54:04;;;;;;;7.65;5.68;;;;;;;;;;1497045;39;20405;-60
2021/06/14 01:55:07;;;;;;;9.75;5.28;;;;;;;;;;1496970;39;20031;-60
2021/06/14 01:56:09;;;;;;;10.05;5.45;;;;;;;;;;1496840;39;20030;-59
2021/06/14 01:57:11;;;;;;;8.50;5.05;;;;;;;;;;1497017;39;20079;-59
2021/06/14 01:58:13;;;;;;;8.65;5.53;;;;;;;;;;1496827;39;20392;-59
2021/06/14 01:59:19;;;;;;;9.98;5.90;;;;;;;;;;1496891;39;20479;-60
2021/06/14 02:00:21;;;;;;;8.13;5.70;;;;;;;;;;1496842;39;20032;-59
2021/06/14 02:01:24;;;;;;;8.07;5.43;;;;;;;;;;1496885;39;20360;-59
2021/06/14 02:02:26;;;;;;;8.75;5.38;;;;;;;;;;1496952;39;20034;-60
2021/06/14 02:03:31;;;;;;;9.02;6.03;;;;;;;;;;1497048;39;20027;-60
2021/06/14 02:04:33;;;;;;;9.45;5.68;;;;;;;;;;1496906;39;20027;-60
2021/06/14 02:05:35;;;;;;;8.98;5.72;;;;;;;;;;1497109;39;20027;-59
2021/06/14 02:06:40;;;;;;;9.35;6.07;;;;;;;;;;1496949;39;20023;-59
2021/06/14 02:07:42;;;;;;;11.90;5.53;;;;;;;;;;1496734;39;20119;-59
2021/06/14 02:08:43;;;;;;;10.57;5.63;;;;;;;;;;1496834;39;20028;-59
2021/06/14 02:09:45;;;;;;;8.77;5.40;;;;;;;;;;1496810;39;20028;-59
2021/06/14 02:10:48;;;;;;;7.85;5.18;;;;;;;;;;1496982;39;20032;-59
2021/06/14 02:11:53;;;;;;;9.10;5.47;;;;;;;;;;1497054;39;20028;-59
2021/06/14 02:12:54;;;;;;;7.80;5.53;;;;;;;;;;1496763;39;20081;-59
2021/06/14 02:13:58;;;;;;;10.50;5.40;;;;;;;;;;1497067;39;20046;-59
2021/06/14 02:15:00;;;;;;;9.15;5.72;;;;;;;;;;1496939;39;20034;-59
2021/06/14 02:16:02;;;;;;;9.20;5.90;;;;;;;;;;1496879;39;20023;-59
2021/06/14 02:17:06;;;;;;;9.40;6.40;;;;;;;;;;1497082;39;20027;-59
2021/06/14 02:18:11;;;;;;;12.63;5.97;;;;;;;;;;1496984;39;20043;-60
2021/06/14 02:19:13;;;;;;;8.07;6.05;;;;;;;;;;1496778;39;20023;-59
2021/06/14 02:20:15;;;;;;;10.25;6.40;;;;;;;;;;1497090;39;20028;-59
2021/06/14 02:21:16;;;;;;;9.77;5.78;;;;;;;;;;1496964;39;20043;-59
2021/06/14 02:22:20;;;;;;;10.35;5.65;;;;;;;;;;1496947;39;20023;-59
2021/06/14 02:23:20;;;;;;;9.85;6.60;;;;;;;;;;1496864;39;20024;-59
2021/06/14 02:24:22;;;;;;;7.95;5.38;;;;;;;;;;1496974;39;20421;-59
2021/06/14 02:25:24;;;;;;;10.52;5.72;;;;;;;;;;1496972;39;20027;-59
2021/06/14 02:26:26;;;;;;;10.48;5.90;;;;;;;;;;1496852;39;20329;-56
2021/06/14 02:27:27;;;;;;;9.32;5.72;;;;;;;;;;1496891;39;20024;-58
2021/06/14 02:28:29;;;;;;;12.70;5.65;;;;;;;;;;1496957;39;20027;-57
2021/06/14 02:29:31;;;;;;;10.23;5.70;;;;;;;;;;1496927;39;20027;-57
2021/06/14 02:30:34;;;;;;;8.77;5.53;;;;;;;;;;1497575;39;20059;-58
2021/06/14 02:31:35;;;;;;;12.82;6.00;;;;;;;;;;1497417;39;20034;-58
2021/06/14 02:32:37;;;;;;;8.68;5.80;;;;;;;;;;1497632;39;20031;-59
2021/06/14 02:33:38;;;;;;;11.35;6.10;;;;;;;;;;1497652;39;20069;-58
2021/06/14 02:34:43;;;;;;;9.00;5.78;;;;;;;;;;1497329;39;20349;-58
2021/06/14 02:35:44;;;;;;;12.30;5.80;;;;;;;;;;1497416;39;20028;-58
2021/06/14 02:36:47;;;;;;;8.90;5.13;;;;;;;;;;1497439;39;20024;-59
2021/06/14 02:37:52;;;;;;;10.43;6.13;;;;;;;;;;1497529;39;20028;-59
2021/06/14 02:38:56;;;;;;;11.73;5.90;;;;;;;;;;1497947;39;20043;-59
2021/06/14 02:39:57;;;;;;;9.00;6.22;;;;;;;;;;1497573;39;20034;-59
2021/06/14 02:41:01;;;;;;;9.52;5.78;;;;;;;;;;1497567;39;20387;-59
2021/06/14 02:42:03;;;;;;;10.05;5.97;;;;;;;;;;1497348;39;20032;-59
2021/06/14 02:43:08;;;;;;;10.77;5.97;;;;;;;;;;1497500;39;20387;-59
2021/06/14 02:44:09;;;;;;;10.60;6.03;;;;;;;;;;1497580;39;20034;-57
2021/06/14 02:45:12;;;;;;;10.23;5.90;;;;;;;;;;1497458;39;20027;-59
2021/06/14 02:46:15;;;;;;;9.60;5.68;;;;;;;;;;1492643;39;20034;-59
2021/06/14 02:47:18;;;;;;;12.30;6.10;;;;;;;;;;1492806;39;20449;-53
2021/06/14 02:48:21;;;;;;;10.20;5.97;;;;;;;;;;1497500;39;20043;-55
2021/06/14 02:49:24;;;;;;;9.52;6.25;;;;;;;;;;1497520;39;20393;-57
2021/06/14 02:50:28;;;;;;;9.05;5.97;;;;;;;;;;1497603;39;20024;-57
2021/06/14 02:51:31;;;;;;;9.55;5.80;;;;;;;;;;1497491;39;20023;-56
2021/06/14 02:52:35;;;;;;;8.05;5.97;;;;;;;;;;1497570;39;20028;-54
2021/06/14 02:53:38;;;;;;;9.00;6.57;;;;;;;;;;1497505;39;20363;-56
2021/06/14 02:54:43;;;;;;;9.88;6.32;;;;;;;;;;1497406;39;20401;-57
2021/06/14 02:55:53;;;;;;;9.38;5.90;;;;;;;;;;1497394;39;20027;-57
2021/06/14 02:56:56;;;;;;;9.93;5.88;;;;;;;;;;1497623;39;20038;-55
2021/06/14 02:58:00;;;;;;;10.35;6.32;;;;;;;;;;1497275;39;20314;-54
2021/06/14 02:59:03;;;;;;;9.68;5.78;;;;;;;;;;1497366;39;20055;-56
2021/06/14 03:00:07;;;;;;;13.60;6.28;;;;;;;;;;1497415;39;20044;-57
2021/06/14 03:01:09;;;;;;;11.98;5.90;;;;;;;;;;1497572;39;20028;-57
2021/06/14 03:02:12;;;;;;;9.27;5.82;;;;;;;;;;1497583;39;20047;-57
2021/06/14 03:03:13;;;;;;;11.27;6.53;;;;;;;;;;1497552;39;20031;-57
2021/06/14 03:04:16;;;;;;;10.65;5.82;;;;;;;;;;1497468;39;20079;-57
2021/06/14 03:05:19;;;;;;;10.95;6.03;;;;;;;;;;1497532;39;20027;-57
2021/06/14 03:06:21;;;;;;;8.40;5.68;;;;;;;;;;1497628;39;20036;-59
2021/06/14 03:07:24;;;;;;;10.27;6.07;;;;;;;;;;1497669;39;20028;-59
2021/06/14 03:08:27;;;;;;;8.63;6.00;;;;;;;;;;1497533;39;20051;-59
2021/06/14 03:09:28;;;;;;;10.52;6.00;;;;;;;;;;1497375;39;20401;-59
2021/06/14 03:10:33;;;;;;;13.23;5.88;;;;;;;;;;1497470;39;20019;-60
2021/06/14 03:11:34;;;;;;;9.20;5.82;;;;;;;;;;1497334;39;20028;-59
2021/06/14 03:12:36;;;;;;;9.43;6.10;;;;;;;;;;1497280;39;20039;-59
2021/06/14 03:13:43;;;;;;;12.15;6.25;;;;;;;;;;1497478;39;20031;-60
2021/06/14 03:14:47;;;;;;;10.35;6.13;;;;;;;;;;1497355;39;20302;-59
2021/06/14 03:15:48;;;;;;;8.82;6.40;;;;;;;;;;1497336;39;20035;-58
2021/06/14 03:16:51;;;;;;;9.25;5.60;;;;;;;;;;1497405;39;20032;-59
2021/06/14 03:17:54;;;;;;;9.73;6.25;;;;;;;;;;1497328;39;20047;-59
2021/06/14 03:18:57;;;;;;;8.23;5.53;;;;;;;;;;1497255;39;20038;-59
2021/06/14 03:19:58;;;;;;;9.82;6.10;;;;;;;;;;1497323;39;20286;-60
2021/06/14 03:21:01;;;;;;;11.32;6.72;;;;;;;;;;1497576;39;20043;-59
2021/06/14 03:22:04;;;;;;;12.40;6.50;;;;;;;;;;1497290;39;20149;-59
2021/06/14 03:23:07;;;;;;;11.70;6.35;;;;;;;;;;1497339;39;20426;-60
2021/06/14 03:24:09;;;;;;;10.18;6.25;;;;;;;;;;1497529;39;20035;-59
2021/06/14 03:25:12;;;;;;;11.30;6.32;;;;;;;;;;1497499;39;20038;-60
2021/06/14 03:26:14;;;;;;;10.63;6.40;;;;;;;;;;1497220;39;20027;-60
2021/06/14 03:27:17;;;;;;;11.75;7.40;;;;;;;;;;1497400;39;20039;-59
2021/06/14 03:28:19;;;;;;;12.20;6.43;;;;;;;;;;1497495;39;20043;-59
2021/06/14 03:29:24;;;;;;;9.57;6.00;;;;;;;;;;1497406;39;20310;-59
2021/06/14 03:30:27;;;;;;;11.95;6.07;;;;;;;;;;1497431;39;20039;-59
2021/06/14 03:31:29;;;;;;;10.25;6.30;;;;;;;;;;1497326;39;20027;-59
2021/06/14 03:32:31;;;;;;;8.68;6.40;;;;;;;;;;1497408;39;20028;-59
2021/06/14 03:33:35;;;;;;;11.38;6.22;;;;;;;;;;1497422;39;20031;-60
2021/06/14 03:34:36;;;;;;;11.32;5.97;;;;;;;;;;1497223;39;20023;-59
2021/06/14 03:35:39;;;;;;;11.30;6.57;;;;;;;;;;1497336;39;20035;-59
2021/06/14 03:36:42;;;;;;;10.15;6.20;;;;;;;;;;1497486;39;20024;-59
2021/06/14 03:37:44;;;;;;;11.00;6.65;;;;;;;;;;1497373;39;20027;-59
2021/06/14 03:38:46;;;;;;;10.93;6.65;;;;;;;;;;1497659;39;20040;-59
2021/06/14 03:39:47;;;;;;;12.27;6.40;;;;;;;;;;1497288;39;20024;-59
2021/06/14 03:40:49;;;;;;;10.13;6.28;;;;;;;;;;1497323;39;20031;-60
2021/06/14 03:41:51;;;;;;;10.55;6.57;;;;;;;;;;1496871;39;20027;-59
2021/06/14 03:42:59;;;;;;;9.73;6.30;;;;;;;;;;1497322;39;20067;-59
2021/06/14 03:44:01;;;;;;;11.07;6.63;;;;;;;;;;1497220;39;20298;-60
2021/06/14 03:45:03;;;;;;;11.07;6.00;;;;;;;;;;1497533;39;20059;-60
2021/06/14 03:46:04;;;;;;;10.32;6.57;;;;;;;;;;1497166;39;20031;-59
2021/06/14 03:47:06;;;;;;;13.50;6.82;;;;;;;;;;1497260;39;20031;-60
2021/06/14 03:48:08;;;;;;;10.55;6.70;;;;;;;;;;1497187;39;20062;-60
2021/06/14 03:49:11;;;;;;;12.70;6.75;;;;;;;;;;1497304;39;20401;-60
2021/06/14 03:50:12;;;;;;;12.80;6.65;;;;;;;;;;1497337;39;20019;-59
2021/06/14 03:51:14;;;;;;;11.07;6.80;;;;;;;;;;1497376;39;20031;-60
2021/06/14 03:52:15;;;;;;;11.82;6.97;;;;;;;;;;1497303;39;20306;-60
2021/06/14 03:53:17;;;;;;;11.50;7.03;;;;;;;;;;1497252;39;20028;-60
2021/06/14 03:54:18;;;;;;;11.27;6.97;;;;;;;;;;1497294;39;20069;-60
2021/06/14 03:55:21;;;;;;;8.70;6.28;;;;;;;;;;1497294;39;20019;-60
2021/06/14 03:56:23;;;;;;;12.35;6.88;;;;;;;;;;1497324;39;20020;-60
2021/06/14 03:57:25;;;;;;;10.10;6.80;;;;;;;;;;1497493;39;20067;-60
2021/06/14 03:58:26;;;;;;;11.77;6.80;;;;;;;;;;1497235;39;20039;-60
2021/06/14 03:59:28;;;;;;;11.02;6.50;;;;;;;;;;1497456;39;20039;-60
2021/06/14 04:00:28;;;;;;;10.43;6.70;;;;;;;;;;1497204;39;20386;-60
2021/06/14 04:01:30;;;;;;;9.30;6.68;;;;;;;;;;1497379;39;20031;-60
2021/06/14 04:02:31;;;;;;;10.07;6.22;;;;;;;;;;1497340;39;20039;-60
2021/06/14 04:03:33;;;;;;;10.18;6.78;;;;;;;;;;1497409;39;20058;-62
2021/06/14 04:04:47;;;;;;;9.55;6.32;;;;;;;;;;1497236;39;20133;-60
2021/06/14 04:05:49;;;;;;;10.18;6.38;;;;;;;;;;1497138;39;20027;-60
2021/06/14 04:06:50;;;;;;;11.60;7.15;;;;;;;;;;1497429;39;20028;-60
2021/06/14 04:07:52;;;;;;;10.82;7.22;;;;;;;;;;1497324;39;20128;-59
2021/06/14 04:08:53;;;;;;;11.38;6.80;;;;;;;;;;1497228;39;20030;-59
2021/06/14 04:09:59;;;;;;;13.75;6.85;;;;;;;;;;1497312;39;20016;-60
2021/06/14 04:11:00;;;;;;;10.45;6.65;;;;;;;;;;1497455;39;20027;-59
2021/06/14 04:12:02;;;;;;;12.13;6.72;;;;;;;;;;1497391;39;20030;-60
2021/06/14 04:13:02;;;;;;;14.48;7.25;;;;;;;;;;1497242;39;20050;-60
2021/06/14 04:14:04;;;;;;;11.93;7.13;;;;;;;;;;1497167;39;20032;-60
2021/06/14 04:15:06;;;;;;;11.20;6.45;;;;;;;;;;1497412;39;20035;-60
2021/06/14 04:16:08;;;;;;;15.20;7.93;;;;;;;;;;1497100;39;20031;-60
2021/06/14 04:17:09;;;;;;;10.57;7.38;;;;;;;;;;1497084;39;20019;-60
2021/06/14 04:18:10;;;;;;;10.77;6.45;;;;;;;;;;1497147;39;20414;-59
2021/06/14 04:19:11;;;;;;;11.65;7.07;;;;;;;;;;1497386;39;20031;-60
2021/06/14 04:20:17;;;;;;;10.52;6.53;;;;;;;;;;1497379;39;20027;-60
2021/06/14 04:21:18;;;;;;;13.30;6.57;;;;;;;;;;1497361;39;20028;-59
2021/06/14 04:22:20;;;;;;;10.20;7.28;;;;;;;;;;1497360;39;20319;-60
2021/06/14 04:23:20;;;;;;;14.48;7.03;;;;;;;;;;1497119;39;20276;-60
2021/06/14 04:24:22;;;;;;;12.00;7.40;;;;;;;;;;1497080;39;20050;-59
2021/06/14 04:25:23;;;;;;;11.18;7.10;;;;;;;;;;1497360;39;20027;-60
2021/06/14 04:26:25;;;;;;;10.82;6.93;;;;;;;;;;1497134;39;20299;-59
2021/06/14 04:27:26;;;;;;;9.65;6.70;;;;;;;;;;1497366;39;20024;-60
2021/06/14 04:28:28;;;;;;;11.10;6.85;;;;;;;;;;1497279;39;20067;-60
2021/06/14 04:29:29;;;;;;;12.80;7.50;;;;;;;;;;1497179;39;20027;-60
2021/06/14 04:30:32;;;;;;;11.82;6.72;;;;;;;;;;1497272;39;20103;-60
2021/06/14 04:31:33;;;;;;;12.95;7.55;;;;;;;;;;1497204;39;20306;-59
2021/06/14 04:32:36;;;;;;;12.32;8.00;;;;;;;;;;1497154;39;20109;-59
2021/06/14 04:33:37;;;;;;;11.95;7.60;;;;;;;;;;1497223;39;20035;-59
2021/06/14 04:34:39;;;;;;;11.50;7.15;;;;;;;;;;1497206;39;20295;-60
2021/06/14 04:35:41;;;;;;;11.77;7.00;;;;;;;;;;1497212;39;20066;-60
2021/06/14 04:36:43;;;;;;;11.35;7.30;;;;;;;;;;1497327;39;20032;-60
2021/06/14 04:37:43;;;;;;;10.10;6.85;;;;;;;;;;1497219;39;20024;-60
2021/06/14 04:38:45;;;;;;;10.80;7.22;;;;;;;;;;1497107;39;20038;-60
2021/06/14 04:39:46;;;;;;;12.13;7.28;;;;;;;;;;1497184;39;20046;-60
2021/06/14 04:40:48;;;;;;;11.23;7.03;;;;;;;;;;1497259;39;20049;-59
2021/06/14 04:41:49;;;;;;;11.02;7.38;;;;;;;;;;1497122;39;20027;-59
2021/06/14 04:42:51;;;;;;;14.75;7.65;;;;;;;;;;1497024;39;20100;-60
2021/06/14 04:43:51;;;;;;;12.85;7.43;;;;;;;;;;1497150;39;20290;-60
2021/06/14 04:44:53;;;;;;;11.82;6.97;;;;;;;;;;1497250;39;20027;-60
2021/06/14 04:45:54;;;;;;;10.00;7.25;;;;;;;;;;1497032;39;20091;-59
2021/06/14 04:46:56;;;;;;;10.35;6.63;;;;;;;;;;1497232;39;20036;-60
2021/06/14 04:47:57;;;;;;;11.55;7.05;;;;;;;;;;1497174;39;20027;-60
2021/06/14 04:48:59;;;;;;;12.00;6.97;;;;;;;;;;1497377;39;20023;-60
2021/06/14 04:50:01;;;;;;;11.68;7.20;;;;;;;;;;1497088;39;20391;-60
2021/06/14 04:51:04;;;;;;;10.95;6.40;;;;;;;;;;1497403;39;20027;-61
2021/06/14 04:52:07;;;;;;;10.73;6.22;;;;;;;;;;1497060;39;20097;-60
2021/06/14 04:53:08;;;;;;;10.70;6.95;;;;;;;;;;1497111;39;20356;-62
2021/06/14 04:54:09;;;;;;;11.80;6.65;;;;;;;;;;1497275;39;20037;-61
2021/06/14 04:55:12;;;;;;;11.23;6.22;;;;;;;;;;1497333;39;20032;-60
2021/06/14 04:56:13;;;;;;;11.05;7.22;;;;;;;;;;1497075;39;20391;-60
2021/06/14 04:57:15;;;;;;;12.27;7.22;;;;;;;;;;1497078;39;20027;-60
2021/06/14 04:58:16;;;;;;;11.27;6.75;;;;;;;;;;1497316;39;20033;-60
2021/06/14 04:59:18;;;;;;;10.30;6.80;;;;;;;;;;1497370;39;20031;-57
2021/06/14 05:00:20;;;;;;;11.70;6.72;;;;;;;;;;1497096;39;20107;-58
2021/06/14 05:01:22;;;;;;;10.30;7.32;;;;;;;;;;1497042;39;20387;-58
2021/06/14 05:02:23;;;;;;;11.85;7.22;;;;;;;;;;1497217;39;20035;-58
2021/06/14 05:03:25;;;;;;;16.20;7.15;;;;;;;;;;1497159;39;20032;-58
2021/06/14 05:04:26;;;;;;;13.07;7.47;;;;;;;;;;1497184;39;20027;-59
2021/06/14 05:05:28;;;;;;;13.02;7.22;;;;;;;;;;1497164;39;20039;-58
2021/06/14 05:06:30;;;;;;;10.68;7.10;;;;;;;;;;1497366;39;20034;-61
2021/06/14 05:07:32;;;;;;;11.48;6.80;;;;;;;;;;1497037;39;20031;-58
2021/06/14 05:08:33;;;;;;;12.85;7.20;;;;;;;;;;1497052;39;20027;-58
2021/06/14 05:09:35;;;;;;;11.75;6.47;;;;;;;;;;1497264;39;20100;-58
2021/06/14 05:10:36;;;;;;;12.75;7.00;;;;;;;;;;1497042;39;20414;-58
2021/06/14 05:11:38;;;;;;;11.70;7.15;;;;;;;;;;1497281;39;20031;-57
2021/06/14 05:12:39;;;;;;;12.13;7.18;;;;;;;;;;1497277;39;20031;-58
2021/06/14 05:13:40;;;;;;;12.77;7.22;;;;;;;;;;1497025;39;20027;-58
2021/06/14 05:14:41;;;;;;;10.05;6.30;;;;;;;;;;1497222;39;20027;-58
2021/06/14 05:15:43;;;;;;;10.73;7.93;;;;;;;;;;1497215;39;20028;-58
2021/06/14 05:16:44;;;;;;;17.02;7.82;;;;;;;;;;1497209;39;20028;-57
2021/06/14 05:17:47;;;;;;;13.27;7.18;;;;;;;;;;1492567;39;20020;-57
2021/06/14 05:18:48;;;;;;;12.88;6.85;;;;;;;;;;1492446;39;20513;-58
2021/06/14 05:19:49;;;;;;;12.13;7.88;;;;;;;;;;1497226;39;20036;-58
2021/06/14 05:20:50;;;;;;;13.18;7.20;;;;;;;;;;1497048;39;20279;-58
2021/06/14 05:21:54;;;;;;;10.43;7.10;;;;;;;;;;1492381;39;20030;-58
2021/06/14 05:22:55;;;;;;;9.88;7.05;;;;;;;;;;1492698;39;20028;-56
2021/06/14 05:23:57;;;;;;;11.00;6.85;;;;;;;;;;1497342;39;20063;-56
2021/06/14 05:24:58;;;;;;;15.95;7.03;;;;;;;;;;1497073;39;20038;-56
2021/06/14 05:25:59;;;;;;;13.32;6.82;;;;;;;;;;1497133;39;20038;-56
2021/06/14 05:27:00;;;;;;;11.10;7.07;;;;;;;;;;1497211;39;20027;-56
2021/06/14 05:28:02;;;;;;;9.27;6.60;;;;;;;;;;1496967;39;20032;-56
2021/06/14 05:29:03;;;;;;;14.82;7.13;;;;;;;;;;1496965;39;20028;-56
2021/06/14 05:30:06;;;;;;;12.27;7.07;;;;;;;;;;1497017;39;20023;-55
2021/06/14 05:31:07;;;;;;;9.90;7.03;;;;;;;;;;1496978;39;20062;-56
2021/06/14 05:32:09;;;;;;;11.35;6.95;;;;;;;;;;1497283;39;20027;-56
2021/06/14 05:33:10;;;;;;;11.90;6.85;;;;;;;;;;1496955;39;20405;-56
2021/06/14 05:34:12;;;;;;;12.07;7.22;;;;;;;;;;1497041;39;20038;-57
2021/06/14 05:35:13;;;;;;;13.27;8.25;;;;;;;;;;1497036;39;20046;-56
2021/06/14 05:36:15;;;;;;;10.25;6.35;;;;;;;;;;1497182;39;20030;-55
2021/06/14 05:37:17;;;;;;;15.27;7.10;;;;;;;;;;1497237;39;20047;-57
2021/06/14 05:38:19;;;;;;;11.15;7.07;;;;;;;;;;1496963;39;20088;-57
2021/06/14 05:39:20;;;;;;;10.10;7.43;;;;;;;;;;1496944;39;20032;-56
2021/06/14 05:40:22;;;;;;;14.57;7.28;;;;;;;;;;1497090;39;20031;-57
2021/06/14 05:41:22;;;;;;;17.88;7.85;;;;;;;;;;1497209;39;20030;-57
2021/06/14 05:42:24;;;;;;;11.52;7.22;;;;;;;;;;1497172;39;20386;-59
2021/06/14 05:43:25;;;;;;;15.25;7.40;;;;;;;;;;1496910;39;20028;-57
2021/06/14 05:44:28;;;;;;;13.60;7.50;;;;;;;;;;1496849;39;20110;-55
2021/06/14 05:45:29;;;;;;;12.48;7.50;;;;;;;;;;1497111;39;20023;-56
2021/06/14 05:46:31;;;;;;;10.90;7.30;;;;;;;;;;1497054;39;20039;-57
2021/06/14 05:47:32;;;;;;;15.00;7.90;;;;;;;;;;1497109;39;20035;-54
2021/06/14 05:48:33;;;;;;;10.82;7.07;;;;;;;;;;1497234;39;20299;-53
2021/06/14 05:49:34;;;;;;;11.32;7.22;;;;;;;;;;1496929;39;20299;-54
2021/06/14 05:50:36;;;;;;;13.02;6.95;;;;;;;;;;1497166;39;20027;-54
2021/06/14 05:51:39;;;;;;;13.68;7.80;;;;;;;;;;1497026;39;20024;-59
2021/06/14 05:52:41;;;;;;;15.93;8.07;;;;;;;;;;1497064;39;20034;-54
2021/06/14 05:53:43;;;;;;;13.35;7.90;;;;;;;;;;1496634;39;20019;-57
2021/06/14 05:54:44;;;;;;;13.65;7.72;;;;;;;;;;1497106;39;20030;-54
2021/06/14 05:55:46;;;;;;;12.73;8.02;;;;;;;;;;1496928;39;20139;-56
2021/06/14 05:56:47;;;;;;;13.70;8.27;;;;;;;;;;1496832;39;20298;-57
2021/06/14 05:57:49;;;;;;;13.50;9.00;;;;;;;;;;1496930;39;20030;-57
2021/06/14 05:58:49;;;;;;;13.93;8.18;;;;;;;;;;1497143;39;20027;-55
2021/06/14 05:59:51;;;;;;;15.65;7.97;;;;;;;;;;1496816;39;20294;-57
2021/06/14 06:00:52;;;;;;;13.00;7.53;;;;;;;;;;1497153;39;20034;-55
2021/06/14 06:01:54;;;;;;;11.85;7.43;;;;;;;;;;1496947;39;20027;-57
2021/06/14 06:02:55;;;;;;;14.73;8.30;;;;;;;;;;1496980;39;20024;-56
2021/06/14 06:03:57;;;;;;;12.80;7.95;;;;;;;;;;1497095;39;20054;-57
2021/06/14 06:04:57;;;;;;;11.75;7.40;;;;;;;;;;1497596;39;20027;-57
2021/06/14 06:06:00;;;;;;;12.95;6.90;;;;;;;;;;1497557;39;20401;-58
2021/06/14 06:07:00;;;;;;;12.15;7.18;;;;;;;;;;1497482;39;20050;-57
2021/06/14 06:08:04;;;;;;;10.65;7.30;;;;;;;;;;1497525;39;20043;-57
2021/06/14 06:09:05;;;;;;;12.13;7.32;;;;;;;;;;1497751;39;20047;-57
2021/06/14 06:10:09;;;;;;;12.45;7.35;;;;;;;;;;1497553;39;20152;-59
2021/06/14 06:11:10;;;;;;;16.38;7.55;;;;;;;;;;1497472;39;20108;-57
2021/06/14 06:12:12;;;;;;;12.50;7.28;;;;;;;;;;1497405;39;20023;-57
2021/06/14 06:13:13;;;;;;;15.38;7.70;;;;;;;;;;1497590;39;20081;-58